createdAt,value
2019-04-10T00:00:35.106Z,52.05
2019-04-10T00:05:32.262Z,52.50
2019-04-10T00:10:29.938Z,51.78
2019-04-10T00:15:27.177Z,51.44
2019-04-10T00:20:27.109Z,51.18
2019-04-10T00:25:24.432Z,51.42
2019-04-10T00:30:23.486Z,50.50
2019-04-10T00:35:21.451Z,50.71
2019-04-10T00:40:20.113Z,50.62
2019-04-10T00:45:19.930Z,50.53
2019-04-10T00:50:18.151Z,50.35
2019-04-10T00:55:15.391Z,50.18
2019-04-10T01:00:12.806Z,49.78
2019-04-10T01:05:13.142Z,50.00
2019-04-10T01:10:10.847Z,49.88
2019-04-10T01:15:09.952Z,49.21
2019-04-10T01:20:07.830Z,49.55
2019-04-10T01:25:06.139Z,49.64
2019-04-10T01:30:07.038Z,49.75
2019-04-10T01:35:05.891Z,49.66
2019-04-10T01:40:08.971Z,49.65
2019-04-10T01:45:06.086Z,50.22
2019-04-10T01:50:04.508Z,50.29
2019-04-10T01:55:19.247Z,50.33
2019-04-10T02:00:00.562Z,50.21
2019-04-10T02:04:59.073Z,50.02
2019-04-10T02:09:56.267Z,49.90
2019-04-10T02:14:54.305Z,50.65
2019-04-10T02:19:51.546Z,50.92
2019-04-10T02:24:49.371Z,51.09
2019-04-10T02:29:48.264Z,51.64
2019-04-10T02:34:46.821Z,51.53
2019-04-10T02:39:47.786Z,50.90
2019-04-10T02:44:45.900Z,50.66
2019-04-10T02:49:44.458Z,50.52
2019-04-10T02:54:41.897Z,51.34
2019-04-10T02:59:40.911Z,50.52
2019-04-10T03:04:37.970Z,50.59
2019-04-10T03:09:49.579Z,50.64
2019-04-10T03:14:36.830Z,51.58
2019-04-10T03:19:35.848Z,50.26
2019-04-10T03:24:32.882Z,50.78
2019-04-10T03:29:30.012Z,50.92
2019-04-10T03:34:31.359Z,50.75
2019-04-10T03:39:31.693Z,52.29
2019-04-10T03:44:28.389Z,51.40
2019-04-10T03:49:25.589Z,51.44
2019-04-10T03:54:24.946Z,51.65
2019-04-10T03:59:22.367Z,51.47
2019-04-10T04:04:19.689Z,51.80
2019-04-10T04:09:17.624Z,51.84
2019-04-10T04:14:18.144Z,50.84
2019-04-10T04:19:15.829Z,51.77
2019-04-10T04:24:12.948Z,50.73
2019-04-10T04:29:10.075Z,51.08
2019-04-10T04:34:07.129Z,51.32
2019-04-10T04:39:18.109Z,50.34
2019-04-10T04:44:04.249Z,50.26
2019-04-10T04:49:03.204Z,50.32
2019-04-10T04:54:00.997Z,50.69
2019-04-10T04:58:59.346Z,50.59
2019-04-10T05:03:58.534Z,51.05
2019-04-10T05:08:56.815Z,50.05
2019-04-10T05:13:55.839Z,50.43
2019-04-10T05:18:54.023Z,51.36
2019-04-10T05:23:51.323Z,50.15
2019-04-10T05:28:48.671Z,50.86
2019-04-10T05:33:45.732Z,50.71
2019-04-10T05:38:44.649Z,51.16
2019-04-10T05:43:42.530Z,50.73
2019-04-10T05:48:39.855Z,50.05
2019-04-10T05:53:40.833Z,49.99
2019-04-10T05:58:40.852Z,49.48
2019-04-10T06:03:40.930Z,49.25
2019-04-10T06:08:39.328Z,49.61
2019-04-10T06:13:36.818Z,49.56
2019-04-10T06:18:37.460Z,48.63
2019-04-10T06:23:41.382Z,49.44
2019-04-10T06:28:42.370Z,48.74
2019-04-10T06:33:42.513Z,48.71
2019-04-10T06:38:39.713Z,49.48
2019-04-10T06:43:39.971Z,48.82
2019-04-10T06:48:38.331Z,48.76
2019-04-10T06:53:35.625Z,47.76
2019-04-10T06:58:33.912Z,47.99
2019-04-10T07:03:45.726Z,47.90
2019-04-10T07:08:34.238Z,47.00
2019-04-10T07:13:32.151Z,46.94
2019-04-10T07:18:30.744Z,47.73
2019-04-10T07:23:32.351Z,47.80
2019-04-10T07:28:30.391Z,47.87
2019-04-10T07:33:34.919Z,46.85
2019-04-10T07:38:37.205Z,46.79
2019-04-10T07:48:56.536Z,45.77
2019-04-10T07:53:56.025Z,45.36
2019-04-10T07:58:53.816Z,45.10
2019-04-10T08:03:52.391Z,46.16
2019-04-10T08:08:51.533Z,45.81
2019-04-10T08:13:51.408Z,46.25
2019-04-10T08:18:49.850Z,46.19
2019-04-10T08:23:49.086Z,46.77
2019-04-10T08:28:46.170Z,47.04
2019-04-10T08:33:44.060Z,46.28
2019-04-10T08:38:43.670Z,46.09
2019-04-10T08:43:42.899Z,46.24
2019-04-10T08:48:41.369Z,45.06
2019-04-10T08:53:38.383Z,46.12
2019-04-10T08:58:35.514Z,45.85
2019-04-10T09:03:35.051Z,45.66
2019-04-10T09:08:32.904Z,44.70
2019-04-10T09:13:33.311Z,46.09
2019-04-10T09:18:33.504Z,46.97
2019-04-10T09:23:42.010Z,43.75
2019-04-10T09:28:30.711Z,45.02
2019-04-10T09:33:32.509Z,45.24
2019-04-10T09:38:30.575Z,44.79
2019-04-10T09:43:29.519Z,43.49
2019-04-10T09:48:28.558Z,43.97
2019-04-10T09:53:26.746Z,43.97
2019-04-10T09:58:26.186Z,43.21
2019-04-10T10:03:24.802Z,43.43
2019-04-10T10:08:24.867Z,44.10
2019-04-10T10:13:25.626Z,44.30
2019-04-10T10:18:23.852Z,45.47
2019-04-10T10:23:21.980Z,45.03
2019-04-10T10:28:18.995Z,46.77
2019-04-10T10:33:17.322Z,45.65
2019-04-10T10:38:14.905Z,45.41
2019-04-10T10:43:16.179Z,46.15
2019-04-10T10:48:17.971Z,45.33
2019-04-10T10:53:16.388Z,45.00
2019-04-10T10:58:15.488Z,44.96
2019-04-10T11:03:16.195Z,45.73
2019-04-10T11:08:13.726Z,46.15
2019-04-10T11:13:10.823Z,45.12
2019-04-10T11:18:08.461Z,45.62
2019-04-10T11:23:06.263Z,44.46
2019-04-10T11:28:12.541Z,45.63
2019-04-10T11:33:08.971Z,44.34
2019-04-10T11:38:09.318Z,44.18
2019-04-10T11:43:07.684Z,43.54
2019-04-10T11:48:07.864Z,42.89
2019-04-10T11:53:06.811Z,42.72
2019-04-10T11:58:05.548Z,42.52
2019-04-10T12:03:04.621Z,42.45
2019-04-10T12:08:28.421Z,42.23
2019-04-10T12:13:01.898Z,42.69
2019-04-10T12:18:00.948Z,41.68
2019-04-10T12:22:58.707Z,41.87
2019-04-10T12:27:59.687Z,41.82
2019-04-10T12:32:56.864Z,43.29
2019-04-10T12:38:02.301Z,41.91
2019-04-10T12:43:01.451Z,43.62
2019-04-10T12:47:58.639Z,43.20
2019-04-10T12:52:58.952Z,43.83
2019-04-10T12:58:06.637Z,44.53
2019-04-10T13:02:58.694Z,45.54
2019-04-10T13:07:56.153Z,47.87
2019-04-10T13:12:53.546Z,46.76
2019-04-10T13:17:56.994Z,47.28
2019-04-10T13:22:58.293Z,46.97
2019-04-10T13:27:57.530Z,47.03
2019-04-10T13:32:54.651Z,46.35
2019-04-10T13:37:54.812Z,46.42
2019-04-10T13:42:51.972Z,47.21
2019-04-10T13:47:49.656Z,47.18
2019-04-10T13:52:51.838Z,47.83
2019-04-10T13:57:50.877Z,45.80
2019-04-10T14:02:50.013Z,45.96
2019-04-10T14:07:47.000Z,44.63
2019-04-10T14:12:44.116Z,44.81
2019-04-10T14:17:41.730Z,45.10
2019-04-10T14:22:53.700Z,45.24
2019-04-10T14:27:56.399Z,45.67
2019-04-10T14:32:55.277Z,46.37
2019-04-10T14:37:54.652Z,47.17
2019-04-10T14:42:51.747Z,47.02
2019-04-10T14:47:51.923Z,47.00
2019-04-10T14:52:49.578Z,46.82
2019-04-10T14:57:47.410Z,47.89
2019-04-10T15:02:50.717Z,47.07
2019-04-10T15:07:51.086Z,46.74
2019-04-10T15:12:48.319Z,46.12
2019-04-10T15:17:48.626Z,45.18
2019-04-10T15:22:52.831Z,45.35
2019-04-10T15:27:56.559Z,45.05
2019-04-10T15:32:56.036Z,44.37
2019-04-10T15:37:55.471Z,44.78
2019-04-10T15:42:54.560Z,44.76
2019-04-10T15:47:54.587Z,44.50
2019-04-10T15:52:51.905Z,44.82
2019-04-10T15:57:53.824Z,44.08
2019-04-10T16:02:48.914Z,44.55
2019-04-10T16:07:46.934Z,43.98
2019-04-10T16:12:44.198Z,43.99
2019-04-10T16:17:44.040Z,43.65
2019-04-10T16:22:43.047Z,44.00
2019-04-10T16:27:41.231Z,44.32
2019-04-10T16:32:41.803Z,44.40
2019-04-10T16:37:43.922Z,43.80
2019-04-10T16:42:41.685Z,44.37
2019-04-10T16:47:39.082Z,43.00
2019-04-10T16:52:36.834Z,42.86
2019-04-10T16:57:34.550Z,43.77
2019-04-10T17:02:31.945Z,43.75
2019-04-10T17:07:29.080Z,43.77
2019-04-10T17:12:26.185Z,44.75
2019-04-10T17:17:23.365Z,45.25
2019-04-10T17:22:31.122Z,45.55
2019-04-10T17:27:19.949Z,44.79
2019-04-10T17:32:17.228Z,44.71
2019-04-10T17:37:15.737Z,45.08
2019-04-10T17:42:14.526Z,45.09
2019-04-10T17:47:12.506Z,44.43
2019-04-10T17:52:10.400Z,45.20
2019-04-10T17:57:08.643Z,44.52
2019-04-10T18:02:07.606Z,45.11
2019-04-10T18:07:05.892Z,45.48
2019-04-10T18:12:04.035Z,46.30
2019-04-10T18:17:02.643Z,45.54
2019-04-10T18:22:00.501Z,45.76
2019-04-10T18:27:02.411Z,45.90
2019-04-10T18:32:00.920Z,45.79
2019-04-10T18:36:58.430Z,45.83
2019-04-10T18:41:56.164Z,45.73
2019-04-10T18:46:57.097Z,45.84
2019-04-10T18:51:54.349Z,46.00
2019-04-10T18:56:51.961Z,46.11
2019-04-10T19:02:07.616Z,46.22
2019-04-10T19:07:05.557Z,46.63
2019-04-10T19:12:04.309Z,46.25
2019-04-10T19:17:06.769Z,46.04
2019-04-10T19:22:06.363Z,45.93
2019-04-10T19:27:07.415Z,45.81
2019-04-10T19:32:07.902Z,45.40
2019-04-10T19:37:06.227Z,45.19
2019-04-10T19:42:08.893Z,44.92
2019-04-10T19:47:10.458Z,45.67
2019-04-10T19:52:08.632Z,44.83
2019-04-10T19:57:06.856Z,44.91
2019-04-10T20:02:04.153Z,44.83
2019-04-10T20:07:01.148Z,44.94
2019-04-10T20:12:02.623Z,44.53
2019-04-10T20:16:59.772Z,44.49
2019-04-10T20:21:56.884Z,43.71
2019-04-10T20:26:53.961Z,43.84
2019-04-10T20:31:53.238Z,43.66
2019-04-10T20:36:53.219Z,44.69
2019-04-10T20:41:53.734Z,44.96
2019-04-10T20:46:49.021Z,45.53
2019-04-10T20:51:47.711Z,45.40
2019-04-10T20:56:46.533Z,45.59
2019-04-10T21:01:44.934Z,45.13
2019-04-10T21:06:43.596Z,45.11
2019-04-10T21:11:41.813Z,45.38
2019-04-10T21:16:40.019Z,44.44
2019-04-10T21:21:37.252Z,45.19
2019-04-10T21:26:34.666Z,45.07
2019-04-10T21:31:50.427Z,45.23
2019-04-10T21:36:51.202Z,45.00
2019-04-10T21:41:48.844Z,45.11
2019-04-10T21:46:46.695Z,45.85
2019-04-10T21:51:44.859Z,45.55
2019-04-10T21:56:43.078Z,45.07
2019-04-10T22:01:42.355Z,46.12
2019-04-10T22:06:41.283Z,45.37
2019-04-10T22:11:39.271Z,45.47
2019-04-10T22:16:37.936Z,45.02
2019-04-10T22:21:35.233Z,45.06
2019-04-10T22:26:33.951Z,45.19
2019-04-10T22:31:32.789Z,44.71
2019-04-10T22:36:31.743Z,45.01
2019-04-10T22:41:32.084Z,45.54
2019-04-10T22:46:27.897Z,45.37
2019-04-10T22:51:27.021Z,45.09
2019-04-10T22:56:25.197Z,44.58
2019-04-10T23:01:22.825Z,45.08
2019-04-10T23:06:20.815Z,45.50
2019-04-10T23:11:30.447Z,45.54
2019-04-10T23:16:19.921Z,45.46
2019-04-10T23:21:17.133Z,45.20
2019-04-10T23:26:17.283Z,46.12
2019-04-10T23:31:15.484Z,47.03
2019-04-10T23:36:12.521Z,46.34
2019-04-10T23:41:09.667Z,45.63
2019-04-10T23:46:06.750Z,45.40
2019-04-10T23:51:04.963Z,45.64
2019-04-10T23:56:02.202Z,45.91
